Time;durP1;ratioP1;P1;durP2;ratioP2;P2;SDS_P1;SDS_P2;PMS_P1;PMS_P2;Temp;Humidity;BMP_temperature;BMP_pressure;BME280_temperature;BME280_humidity;BME280_pressure;Samples;Min_cycle;Max_cycle;Signal;HPM_P1;HPM_P2
2021/10/14 00:01:24;459199.00;1.53;791.61;0.00;0.00;0.62;;;;;12.00;1.00;;;;;;2275832;61;2001;-83
2021/10/14 00:03:51;559124.00;1.86;963.69;0.00;0.00;0.62;;;;;12.20;1.00;;;;;;2275711;61;1418;-87
2021/10/14 00:06:17;607655.00;2.03;1047.44;0.00;0.00;0.62;;;;;12.70;1.00;;;;;;2276566;61;1145;-87
2021/10/14 00:08:44;458033.00;1.53;789.60;0.00;0.00;0.62;;;;;13.50;1.00;;;;;;2276640;61;915;-87
2021/10/14 00:11:13;346203.00;1.15;597.34;0.00;0.00;0.62;;;;;13.70;1.00;;;;;;2276662;61;1123;-85
2021/10/14 00:13:39;409331.00;1.36;705.85;0.00;0.00;0.62;;;;;13.40;1.00;;;;;;2276584;61;1423;-84
2021/10/14 00:16:07;415248.00;1.38;716.02;0.00;0.00;0.62;;;;;12.70;1.00;;;;;;2276632;61;1082;-84
2021/10/14 00:18:34;449072.00;1.50;774.19;0.00;0.00;0.62;;;;;12.50;1.00;;;;;;2276604;61;1099;-85
2021/10/14 00:21:01;485053.00;1.62;836.09;0.00;0.00;0.62;;;;;12.10;1.00;;;;;;2266139;61;2012;-85
2021/10/14 00:23:28;454975.00;1.52;784.34;0.00;0.00;0.62;;;;;11.40;1.00;;;;;;2267871;61;1408;-86
2021/10/14 00:25:55;590683.00;1.97;1018.14;0.00;0.00;0.62;;;;;10.40;1.00;;;;;;2267973;61;1657;-85
2021/10/14 00:28:23;635538.00;2.12;1095.62;0.00;0.00;0.62;;;;;10.50;1.00;;;;;;2267903;61;1082;-85
2021/10/14 00:30:50;365311.00;1.22;630.18;0.00;0.00;0.62;;;;;10.50;1.00;;;;;;2267914;61;1071;-84
2021/10/14 00:33:17;418224.00;1.39;721.14;0.00;0.00;0.62;;;;;10.80;1.00;;;;;;2267951;61;1304;-85
2021/10/14 00:35:44;500788.00;1.67;863.18;0.00;0.00;0.62;;;;;11.10;1.00;;;;;;2267909;61;1198;-85
2021/10/14 00:38:11;513702.00;1.71;885.42;0.00;0.00;0.62;;;;;10.80;1.00;;;;;;2267928;61;1137;-84
2021/10/14 00:40:38;675065.00;2.25;1164.02;0.00;0.00;0.62;;;;;10.50;1.00;;;;;;2268926;61;2000;-83
2021/10/14 00:43:05;611122.00;2.04;1053.43;0.00;0.00;0.62;;;;;10.40;1.00;;;;;;2276504;61;1266;-84
2021/10/14 00:45:33;571712.00;1.91;985.40;0.00;0.00;0.62;;;;;10.60;1.00;;;;;;2276517;61;1044;-84
2021/10/14 00:48:00;572339.00;1.91;986.48;0.00;0.00;0.62;;;;;10.50;1.00;;;;;;2267732;61;1011;-87
2021/10/14 00:50:27;574848.00;1.92;990.81;0.00;0.00;0.62;;;;;10.90;1.00;;;;;;2267811;61;999;-87
2021/10/14 00:52:55;526049.00;1.75;906.68;0.00;0.00;0.62;;;;;10.70;1.00;;;;;;2267805;61;1359;-85
2021/10/14 00:55:22;721680.00;2.41;1244.85;0.00;0.00;0.62;;;;;10.20;1.00;;;;;;2267770;61;1137;-85
2021/10/14 00:57:49;523212.00;1.74;901.80;0.00;0.00;0.62;;;;;10.00;1.00;;;;;;2267813;61;1135;-87
2021/10/14 01:00:17;480916.00;1.60;828.97;0.00;0.00;0.62;;;;;10.10;1.00;;;;;;2267824;61;1080;-85
2021/10/14 01:02:46;622210.00;2.07;1072.59;23907.00;0.08;42.04;;;;;10.70;1.00;;;;;;2267682;61;2011;-87
2021/10/14 01:05:14;508337.00;1.69;876.18;0.00;0.00;0.62;;;;;10.70;1.00;;;;;;2268924;61;1076;-84
2021/10/14 01:07:41;517509.00;1.73;891.97;0.00;0.00;0.62;;;;;10.30;1.00;;;;;;2276387;61;1085;-86
2021/10/14 01:10:09;565840.00;1.89;975.27;0.00;0.00;0.62;;;;;10.50;1.00;;;;;;2276443;61;1013;-83
2021/10/14 01:12:38;663339.00;2.21;1143.72;0.00;0.00;0.62;;;;;10.90;1.00;;;;;;2276254;61;1345;-83
2021/10/14 01:15:32;569666.00;1.90;981.87;0.00;0.00;0.62;;;;;10.70;1.00;;;;;;2276281;61;1211;-83
2021/10/14 01:18:00;681001.00;2.27;1174.31;0.00;0.00;0.62;;;;;10.60;1.00;;;;;;2267095;61;1217;-84
2021/10/14 01:20:29;819495.00;2.73;1415.14;0.00;0.00;0.62;;;;;10.60;1.00;;;;;;2276211;61;1094;-83
2021/10/14 01:22:57;487607.00;1.63;840.49;0.00;0.00;0.62;;;;;10.10;1.00;;;;;;2276198;61;2015;-83
2021/10/14 01:25:25;653498.00;2.18;1126.69;0.00;0.00;0.62;;;;;10.10;1.00;;;;;;2276191;61;1126;-84
2021/10/14 01:27:52;592592.00;1.98;1021.43;0.00;0.00;0.62;;;;;10.20;1.00;;;;;;2269015;61;1069;-83
2021/10/14 01:30:19;489680.00;1.63;844.06;0.00;0.00;0.62;;;;;10.20;1.00;;;;;;2276121;61;1058;-84
2021/10/14 01:32:49;683338.00;2.28;1178.36;0.00;0.00;0.62;;;;;10.20;1.00;;;;;;2268887;61;1305;-83
2021/10/14 01:35:16;515195.00;1.72;887.99;0.00;0.00;0.62;;;;;10.40;1.00;;;;;;2275993;61;1098;-83
2021/10/14 01:37:45;503334.00;1.68;867.56;0.00;0.00;0.62;;;;;11.00;1.00;;;;;;2276130;61;1132;-83
2021/10/14 01:40:13;304310.00;1.01;525.33;0.00;0.00;0.62;;;;;11.00;1.00;;;;;;2276000;61;1764;-83
2021/10/14 01:42:40;452433.00;1.51;779.97;0.00;0.00;0.62;;;;;10.70;1.00;;;;;;2275884;61;1923;-84
2021/10/14 01:45:08;434424.00;1.45;748.99;0.00;0.00;0.62;;;;;10.60;1.00;;;;;;2276174;61;1067;-85
2021/10/14 01:47:36;492980.00;1.64;849.74;0.00;0.00;0.62;;;;;10.20;1.00;;;;;;2276245;61;986;-84
2021/10/14 01:50:04;577824.00;1.93;995.94;8879.00;0.03;16.01;;;;;10.30;1.00;;;;;;2267590;61;1051;-84
2021/10/14 01:52:31;857573.00;2.86;1481.72;12098.00;0.04;21.58;;;;;10.60;1.00;;;;;;2260690;61;1324;-85
2021/10/14 01:54:59;577577.00;1.93;995.52;0.00;0.00;0.62;;;;;10.90;1.00;;;;;;2261013;61;943;-84
2021/10/14 01:57:26;583811.00;1.95;1006.27;23164.00;0.08;40.75;;;;;10.90;1.00;;;;;;2259583;61;1180;-86
2021/10/14 01:59:53;557216.00;1.86;960.40;0.00;0.00;0.62;;;;;10.70;1.00;;;;;;2259641;61;1072;-82
2021/10/14 02:02:20;886834.00;2.96;1533.01;29562.00;0.10;51.82;;;;;10.40;1.00;;;;;;2259579;61;1995;-85
2021/10/14 02:04:47;457215.00;1.52;788.19;0.00;0.00;0.62;;;;;10.30;1.00;;;;;;2259638;61;1041;-84
2021/10/14 02:07:14;576622.00;1.92;993.87;0.00;0.00;0.62;;;;;10.40;1.00;;;;;;2260533;61;1039;-83
2021/10/14 02:09:41;366202.00;1.22;631.71;0.00;0.00;0.62;;;;;10.90;1.00;;;;;;2263546;61;1016;-83
2021/10/14 02:12:09;501315.00;1.67;864.09;0.00;0.00;0.62;;;;;11.30;1.00;;;;;;2260245;61;1018;-84
2021/10/14 02:14:36;605798.00;2.02;1044.23;0.00;0.00;0.62;;;;;11.50;1.00;;;;;;2261025;61;1413;-84
2021/10/14 02:17:03;431646.00;1.44;744.22;0.00;0.00;0.62;;;;;11.40;1.00;;;;;;2271630;61;1170;-85
2021/10/14 02:19:30;406499.00;1.35;700.98;0.00;0.00;0.62;;;;;11.90;1.00;;;;;;2271578;61;1065;-84
2021/10/14 02:21:57;591531.00;1.97;1019.60;0.00;0.00;0.62;;;;;11.80;1.00;;;;;;2270824;61;1918;-84
2021/10/14 02:24:24;523079.00;1.74;901.57;0.00;0.00;0.62;;;;;11.50;1.00;;;;;;2271663;61;1432;-84
2021/10/14 02:26:50;578248.00;1.93;996.68;0.00;0.00;0.62;;;;;11.20;1.00;;;;;;2272032;61;1148;-86
2021/10/14 02:29:19;435398.00;1.45;750.67;0.00;0.00;0.62;;;;;11.00;1.00;;;;;;2276184;61;1159;-84
2021/10/14 02:31:46;583122.00;1.94;1005.09;0.00;0.00;0.62;;;;;11.10;1.00;;;;;;2276217;61;980;-84
2021/10/14 02:34:12;611331.00;2.04;1053.79;0.00;0.00;0.62;;;;;11.00;1.00;;;;;;2276052;61;1318;-84
2021/10/14 02:36:39;488168.00;1.63;841.46;0.00;0.00;0.62;;;;;10.90;1.00;;;;;;2276170;61;1310;-84
2021/10/14 02:39:06;745193.00;2.48;1285.70;0.00;0.00;0.62;;;;;10.70;1.00;;;;;;2276179;61;1059;-84
2021/10/14 02:41:33;549110.00;1.83;946.43;0.00;0.00;0.62;;;;;10.50;1.00;;;;;;2276151;61;1988;-84
2021/10/14 02:44:00;486984.00;1.62;839.42;0.00;0.00;0.62;;;;;10.40;1.00;;;;;;2276149;61;1403;-86
2021/10/14 02:46:28;567677.00;1.89;978.44;0.00;0.00;0.62;;;;;10.40;1.00;;;;;;2276134;61;1028;-84
2021/10/14 02:48:55;538325.00;1.79;927.84;0.00;0.00;0.62;;;;;10.80;1.00;;;;;;2276154;61;1078;-86
2021/10/14 02:51:22;564716.00;1.88;973.33;46556.00;0.16;81.23;;;;;11.10;1.00;;;;;;2276111;61;1063;-86
2021/10/14 02:53:49;603690.00;2.01;1040.59;0.00;0.00;0.62;;;;;10.90;1.00;;;;;;2276093;61;1292;-86
2021/10/14 02:56:16;603966.00;2.01;1041.07;0.00;0.00;0.62;;;;;10.90;1.00;;;;;;2276115;61;1206;-85
2021/10/14 02:58:43;622369.00;2.07;1072.86;0.00;0.00;0.62;;;;;11.00;1.00;;;;;;2276065;61;1136;-87
2021/10/14 03:01:10;568671.00;1.90;980.15;0.00;0.00;0.62;;;;;11.00;1.00;;;;;;2276081;61;1091;-87
2021/10/14 03:03:38;661532.00;2.21;1140.59;0.00;0.00;0.62;;;;;11.30;1.00;;;;;;2275965;61;1931;-87
2021/10/14 03:06:06;604884.00;2.02;1042.65;0.00;0.00;0.62;;;;;11.60;1.00;;;;;;2276044;61;1053;-86
2021/10/14 03:08:33;803738.00;2.68;1387.64;0.00;0.00;0.62;;;;;12.20;1.00;;;;;;2276052;61;1108;-87
2021/10/14 03:10:59;666610.00;2.22;1149.38;0.00;0.00;0.62;;;;;11.90;1.00;;;;;;2276010;61;972;-84
2021/10/14 03:13:26;688622.00;2.30;1187.51;0.00;0.00;0.62;;;;;11.80;1.00;;;;;;2276011;61;1309;-86
2021/10/14 03:15:53;570032.00;1.90;982.50;0.00;0.00;0.62;;;;;12.50;1.00;;;;;;2276005;61;1042;-85
2021/10/14 03:18:20;642644.00;2.14;1107.91;0.00;0.00;0.62;;;;;12.70;1.00;;;;;;2276022;61;1135;-87
2021/10/14 03:20:49;702868.00;2.34;1212.21;0.00;0.00;0.62;;;;;13.00;1.00;;;;;;2276046;61;975;-85
2021/10/14 03:23:16;482066.00;1.61;830.95;0.00;0.00;0.62;;;;;13.30;1.00;;;;;;2275998;61;1915;-87
2021/10/14 03:25:42;676464.00;2.25;1166.45;0.00;0.00;0.62;;;;;13.60;1.00;;;;;;2275980;61;1147;-87
2021/10/14 03:28:09;494203.00;1.65;851.84;0.00;0.00;0.62;;;;;13.30;1.00;;;;;;2275667;61;1963;-87
2021/10/14 03:30:36;540237.00;1.80;931.13;0.00;0.00;0.62;;;;;13.70;1.00;;;;;;2275698;61;1147;-84
2021/10/14 03:33:03;476354.00;1.59;821.12;0.00;0.00;0.62;;;;;13.90;1.00;;;;;;2275909;61;1376;-83
2021/10/14 03:35:30;584681.00;1.95;1007.78;0.00;0.00;0.62;;;;;13.90;1.00;;;;;;2275195;61;1130;-87
2021/10/14 03:37:59;117902512.00;393.01;66389996.00;0.00;0.00;0.62;;;;;13.20;1.00;;;;;;2274873;61;1185;-87
2021/10/14 03:40:26;509300.00;1.70;877.84;0.00;0.00;0.62;;;;;12.60;1.00;;;;;;2274988;61;1100;-87
2021/10/14 03:42:53;535041.00;1.78;922.18;0.00;0.00;0.62;;;;;12.40;1.00;;;;;;2275415;61;1996;-87
2021/10/14 03:45:20;300682.00;1.00;519.09;0.00;0.00;0.62;;;;;12.00;1.00;;;;;;2275212;61;1077;-87
2021/10/14 03:47:47;709428.00;2.36;1223.59;0.00;0.00;0.62;;;;;11.70;1.00;;;;;;2268169;61;1187;-87
2021/10/14 03:50:14;532237.00;1.77;917.35;0.00;0.00;0.62;;;;;11.50;1.00;;;;;;2275095;61;1108;-87
2021/10/14 03:52:41;696681.00;2.32;1201.48;20357.00;0.07;35.89;;;;;11.00;1.00;;;;;;2275258;61;1347;-87
2021/10/14 03:55:10;552071.00;1.84;951.53;0.00;0.00;0.62;;;;;10.60;1.00;;;;;;2264751;61;1076;-87
2021/10/14 03:57:37;599362.00;2.00;1033.12;0.00;0.00;0.62;;;;;10.60;1.00;;;;;;2267716;61;1133;-87
2021/10/14 04:00:04;649246.00;2.16;1119.33;0.00;0.00;0.62;;;;;10.00;1.00;;;;;;2268051;61;1117;-87
2021/10/14 04:02:31;826913.00;2.76;1428.10;0.00;0.00;0.62;;;;;9.80;1.00;;;;;;2268088;61;1920;-87
2021/10/14 04:04:58;524907.00;1.75;904.72;0.00;0.00;0.62;;;;;9.70;1.00;;;;;;2268114;61;1246;-87
2021/10/14 04:07:25;580964.00;1.94;1001.36;0.00;0.00;0.62;;;;;9.60;1.00;;;;;;2264957;61;1142;-85
2021/10/14 04:09:52;735824.00;2.45;1269.42;0.00;0.00;0.62;;;;;9.50;1.00;;;;;;2266184;61;1076;-83
2021/10/14 04:12:20;522191.00;1.74;900.04;0.00;0.00;0.62;;;;;9.10;1.00;;;;;;2268803;61;1399;-86
2021/10/14 04:14:47;709680.00;2.37;1224.03;0.00;0.00;0.62;;;;;8.90;1.00;;;;;;2268731;61;1152;-87
2021/10/14 04:17:14;553695.00;1.85;954.33;0.00;0.00;0.62;;;;;8.30;1.00;;;;;;2267179;61;1026;-88
2021/10/14 04:19:42;613773.00;2.05;1058.01;0.00;0.00;0.62;;;;;8.00;1.00;;;;;;2259336;61;1061;-87
2021/10/14 04:22:09;668382.00;2.23;1152.45;0.00;0.00;0.62;;;;;8.00;1.00;;;;;;2255995;61;2021;-87
2021/10/14 04:24:38;724436.00;2.41;1249.64;0.00;0.00;0.62;;;;;7.90;1.00;;;;;;2255871;61;1385;-87
2021/10/14 04:27:05;662931.00;2.21;1143.01;0.00;0.00;0.62;;;;;8.00;1.00;;;;;;2259730;61;1165;-84
2021/10/14 04:29:34;649383.00;2.16;1119.57;0.00;0.00;0.62;;;;;8.10;1.00;;;;;;2259974;61;1025;-84
2021/10/14 04:32:03;428861.00;1.43;739.43;0.00;0.00;0.62;;;;;8.20;1.00;;;;;;2256621;61;981;-83
2021/10/14 04:34:30;550202.00;1.83;948.31;0.00;0.00;0.62;;;;;8.80;1.00;;;;;;2260301;61;1355;-87
2021/10/14 04:36:57;395099.00;1.32;681.38;0.00;0.00;0.62;;;;;9.00;1.00;;;;;;2268908;61;978;-84
2021/10/14 04:39:24;744039.00;2.48;1283.69;0.00;0.00;0.62;;;;;9.00;1.00;;;;;;2269376;61;990;-83
2021/10/14 04:41:51;795539.00;2.65;1373.34;0.00;0.00;0.62;;;;;9.20;1.00;;;;;;2276443;61;1093;-83
2021/10/14 04:44:18;625397.00;2.08;1078.09;0.00;0.00;0.62;;;;;9.10;1.00;;;;;;2268675;61;1374;-87
2021/10/14 04:46:47;662586.00;2.21;1142.42;0.00;0.00;0.62;;;;;8.30;1.00;;;;;;2265327;61;1093;-86
2021/10/14 04:49:13;712193.00;2.37;1228.39;0.00;0.00;0.62;;;;;8.40;5.00;;;;;;2268476;61;1276;-86
2021/10/14 04:51:40;568947.00;1.90;980.63;0.00;0.00;0.62;;;;;9.60;3.30;;;;;;2267674;61;1075;-86
2021/10/14 04:54:07;748571.00;2.50;1291.57;0.00;0.00;0.62;;;;;9.80;1.00;;;;;;2276053;61;1355;-87
2021/10/14 04:56:34;662404.00;2.21;1142.10;0.00;0.00;0.62;;;;;10.20;1.00;;;;;;2269263;61;1084;-87
2021/10/14 04:59:01;718096.00;2.39;1238.63;0.00;0.00;0.62;;;;;10.20;1.00;;;;;;2267791;61;1022;-88
2021/10/14 05:01:28;760569.00;2.54;1312.44;29938.00;0.10;52.48;;;;;9.90;1.00;;;;;;2267830;61;1066;-87
2021/10/14 05:03:56;718808.00;2.40;1239.87;0.00;0.00;0.62;;;;;9.70;1.00;;;;;;2257688;61;2010;-87
2021/10/14 05:06:23;767073.00;2.56;1323.76;0.00;0.00;0.62;;;;;9.70;1.00;;;;;;2261029;61;1262;-87
2021/10/14 05:08:50;662796.00;2.21;1142.78;0.00;0.00;0.62;;;;;9.40;1.00;;;;;;2261012;61;974;-87
2021/10/14 05:11:17;630492.00;2.10;1086.90;0.00;0.00;0.62;;;;;9.50;1.00;;;;;;2267768;61;1035;-88
2021/10/14 05:13:44;642185.00;2.14;1107.12;0.00;0.00;0.62;;;;;9.50;1.00;;;;;;2264199;61;1327;-87
2021/10/14 05:16:11;760322.00;2.53;1312.01;0.00;0.00;0.62;;;;;9.30;1.00;;;;;;2268567;61;1204;-88
2021/10/14 05:18:38;800697.00;2.67;1382.34;0.00;0.00;0.62;;;;;9.40;1.00;;;;;;2275785;61;1302;-85
2021/10/14 05:21:06;833853.00;2.78;1440.23;0.00;0.00;0.62;;;;;9.40;1.00;;;;;;2276258;61;991;-86
2021/10/14 05:23:33;587421.00;1.96;1012.51;0.00;0.00;0.62;;;;;9.40;1.00;;;;;;2276159;61;2006;-87
2021/10/14 05:26:00;860689.00;2.87;1487.18;0.00;0.00;0.62;;;;;10.20;1.00;;;;;;2276060;61;1126;-87
2021/10/14 05:28:27;633428.00;2.11;1091.98;0.00;0.00;0.62;;;;;10.30;1.00;;;;;;2276333;61;1092;-86
2021/10/14 05:30:54;542461.00;1.81;934.96;0.00;0.00;0.62;;;;;10.00;1.00;;;;;;2276241;61;1095;-86
2021/10/14 05:33:21;636541.00;2.12;1097.36;0.00;0.00;0.62;;;;;10.40;1.00;;;;;;2276116;61;1333;-86
2021/10/14 05:35:48;577499.00;1.92;995.38;0.00;0.00;0.62;;;;;10.60;1.00;;;;;;2276366;61;1098;-84
2021/10/14 05:38:16;507929.00;1.69;875.48;0.00;0.00;0.62;;;;;10.90;1.00;;;;;;2276321;61;1095;-84
2021/10/14 05:40:45;593276.00;1.98;1022.61;0.00;0.00;0.62;;;;;10.60;1.00;;;;;;2276345;61;1139;-87
2021/10/14 05:43:12;592950.00;1.98;1022.05;0.00;0.00;0.62;;;;;10.60;1.00;;;;;;2276253;61;1914;-87
2021/10/14 05:45:39;486008.00;1.62;837.74;0.00;0.00;0.62;;;;;10.80;1.00;;;;;;2275412;61;1173;-87
2021/10/14 05:48:06;646996.00;2.16;1115.44;12172.00;0.04;21.71;;;;;10.40;1.00;;;;;;2275967;61;1134;-87
2021/10/14 05:50:33;414060.00;1.38;713.98;0.00;0.00;0.62;;;;;10.40;1.00;;;;;;2275700;61;1150;-87
2021/10/14 05:53:00;620289.00;2.07;1069.27;0.00;0.00;0.62;;;;;10.50;1.00;;;;;;2275797;61;1373;-88
2021/10/14 05:55:29;503124.00;1.68;867.20;0.00;0.00;0.62;;;;;10.80;1.00;;;;;;2276217;61;1103;-84
2021/10/14 05:57:55;665799.00;2.22;1147.98;0.00;0.00;0.62;;;;;11.00;1.00;;;;;;2276225;61;1123;-87
2021/10/14 06:00:22;455801.00;1.52;785.76;0.00;0.00;0.62;;;;;11.50;1.00;;;;;;2276253;61;961;-86
2021/10/14 06:02:49;434375.00;1.45;748.91;0.00;0.00;0.62;;;;;11.40;1.00;;;;;;2275948;61;2013;-87
2021/10/14 06:05:16;595865.00;1.99;1027.08;0.00;0.00;0.62;;;;;11.50;1.00;;;;;;2276254;61;1095;-87
2021/10/14 06:07:43;503157.00;1.68;867.26;0.00;0.00;0.62;;;;;11.70;1.00;;;;;;2269086;61;964;-87
2021/10/14 06:10:10;460014.00;1.53;793.01;0.00;0.00;0.62;;;;;12.30;1.00;;;;;;2276262;61;1004;-88
2021/10/14 06:12:38;475760.00;1.59;820.10;0.00;0.00;0.62;;;;;13.00;1.00;;;;;;2267454;61;1328;-84
2021/10/14 06:15:06;427709.00;1.43;737.45;0.00;0.00;0.62;;;;;13.10;1.00;;;;;;2267571;61;1075;-86
2021/10/14 06:17:33;415241.00;1.38;716.01;0.00;0.00;0.62;;;;;12.50;1.00;;;;;;2267625;61;1010;-85
2021/10/14 06:20:00;546482.00;1.82;941.90;0.00;0.00;0.62;;;;;12.20;1.00;;;;;;2257643;61;1000;-85
2021/10/14 06:22:27;684742.00;2.28;1180.79;0.00;0.00;0.62;;;;;11.80;1.00;;;;;;2267470;61;2015;-84
2021/10/14 06:24:54;409297.00;1.36;705.79;0.00;0.00;0.62;;;;;11.90;1.00;;;;;;2267559;61;1029;-83
2021/10/14 06:27:21;700603.00;2.34;1208.28;0.00;0.00;0.62;;;;;11.70;1.00;;;;;;2267271;61;1066;-84
2021/10/14 06:29:50;747783.00;2.49;1290.20;0.00;0.00;0.62;;;;;11.80;1.00;;;;;;2268227;61;1448;-83
2021/10/14 06:32:17;732769.00;2.44;1264.11;0.00;0.00;0.62;;;;;12.60;1.00;;;;;;2276060;61;1300;-84
2021/10/14 06:34:43;443381.00;1.48;764.40;0.00;0.00;0.62;;;;;12.90;1.00;;;;;;2276089;61;1016;-83
2021/10/14 06:37:11;595499.00;1.98;1026.45;0.00;0.00;0.62;;;;;12.80;1.00;;;;;;2276101;61;1071;-84
2021/10/14 06:39:37;524547.00;1.75;904.10;0.00;0.00;0.62;;;;;12.10;1.00;;;;;;2276069;61;1189;-83
2021/10/14 06:42:04;604874.00;2.02;1042.64;0.00;0.00;0.62;;;;;12.00;1.00;;;;;;2276056;61;1319;-84
2021/10/14 06:44:31;473491.00;1.58;816.20;0.00;0.00;0.62;;;;;11.80;1.00;;;;;;2276169;61;2030;-84
2021/10/14 06:47:00;395394.00;1.32;681.89;0.00;0.00;0.62;;;;;12.20;1.00;;;;;;2276096;61;1135;-84
2021/10/14 06:49:27;414174.00;1.38;714.17;0.00;0.00;0.62;;;;;12.30;1.00;;;;;;2276084;61;1075;-83
2021/10/14 06:51:55;553166.00;1.84;953.42;0.00;0.00;0.62;;;;;12.50;1.00;;;;;;2276090;61;1099;-84
2021/10/14 06:54:23;517340.00;1.72;891.68;29944.00;0.10;52.49;;;;;12.90;1.00;;;;;;2276129;61;1379;-83
2021/10/14 06:56:50;325521.00;1.09;561.79;0.00;0.00;0.62;;;;;13.30;1.00;;;;;;2276168;61;1135;-83
2021/10/14 06:59:17;424409.00;1.41;731.77;0.00;0.00;0.62;;;;;13.80;1.00;;;;;;2276137;61;984;-84
2021/10/14 07:01:44;366912.00;1.22;632.93;0.00;0.00;0.62;;;;;14.10;1.00;;;;;;2276155;61;1080;-84
2021/10/14 07:04:12;542711.00;1.81;935.40;0.00;0.00;0.62;;;;;14.20;1.00;;;;;;2276052;61;2014;-84
2021/10/14 07:06:39;512452.00;1.71;883.26;0.00;0.00;0.62;;;;;14.90;1.00;;;;;;2276036;61;906;-84
2021/10/14 07:09:06;388536.00;1.30;670.10;0.00;0.00;0.62;;;;;14.90;1.00;;;;;;2276080;61;1043;-84
2021/10/14 07:11:40;470213.00;1.57;810.56;0.00;0.00;0.62;;;;;14.20;1.00;;;;;;2276025;61;1140;-84
2021/10/14 07:14:06;523099.00;1.74;901.60;0.00;0.00;0.62;;;;;13.90;1.00;;;;;;2275976;61;1503;-84
2021/10/14 07:16:33;509807.00;1.70;878.71;0.00;0.00;0.62;;;;;13.90;1.00;;;;;;2276088;61;973;-85
2021/10/14 07:19:00;382615.00;1.28;659.92;0.00;0.00;0.62;;;;;13.70;1.00;;;;;;2275964;61;990;-84
2021/10/14 07:21:30;450491.00;1.50;776.63;0.00;0.00;0.62;;;;;13.50;1.00;;;;;;2275600;61;1127;-83
2021/10/14 07:23:57;528287.00;1.76;910.54;0.00;0.00;0.62;;;;;13.20;1.00;;;;;;2275776;61;2010;-84
2021/10/14 07:26:23;648901.00;2.16;1118.73;56727.00;0.19;98.82;;;;;13.20;1.00;;;;;;2276016;61;1001;-84
2021/10/14 07:28:50;430602.00;1.44;742.42;0.00;0.00;0.62;;;;;13.60;1.00;;;;;;2275989;61;1031;-84
2021/10/14 07:31:17;537858.00;1.79;927.03;0.00;0.00;0.62;;;;;13.20;1.00;;;;;;2276008;61;1067;-83
2021/10/14 07:33:44;314257.00;1.05;542.43;0.00;0.00;0.62;;;;;12.60;1.00;;;;;;2276013;61;1383;-84
2021/10/14 07:36:11;316593.00;1.06;546.44;0.00;0.00;0.62;;;;;12.50;1.00;;;;;;2276016;61;1157;-84
2021/10/14 07:38:40;336700.00;1.12;581.00;0.00;0.00;0.62;;;;;13.00;1.00;;;;;;2275998;61;1075;-83
2021/10/14 07:41:07;757026.00;2.52;1306.28;24279.00;0.08;42.68;;;;;13.50;1.00;;;;;;2275877;61;2007;-84
2021/10/14 07:43:34;614045.00;2.05;1058.48;0.00;0.00;0.62;;;;;14.50;1.00;;;;;;2275994;61;1994;-84
2021/10/14 07:46:01;348801.00;1.16;601.80;0.00;0.00;0.62;;;;;14.60;1.00;;;;;;2276043;61;1058;-84
2021/10/14 07:48:28;384673.00;1.28;663.46;0.00;0.00;0.62;;;;;14.30;1.00;;;;;;2275964;61;1129;-85
2021/10/14 07:50:55;340658.00;1.14;587.80;0.00;0.00;0.62;;;;;14.60;1.00;;;;;;2275937;61;1242;-84
2021/10/14 07:53:22;303322.00;1.01;523.63;0.00;0.00;0.62;;;;;15.00;1.00;;;;;;2275947;61;1355;-84
2021/10/14 07:55:51;238853.00;0.80;412.78;0.00;0.00;0.62;;;;;15.90;1.00;;;;;;2275997;61;1144;-84
2021/10/14 07:58:18;297281.00;0.99;513.25;0.00;0.00;0.62;;;;;15.30;1.00;;;;;;2276014;61;1051;-84
2021/10/14 08:00:45;310689.00;1.04;536.29;0.00;0.00;0.62;;;;;14.90;1.00;;;;;;2275911;61;995;-83
2021/10/14 08:03:12;336250.00;1.12;580.23;0.00;0.00;0.62;;;;;15.30;1.00;;;;;;2275904;61;2004;-84
2021/10/14 08:05:39;422040.00;1.41;727.70;0.00;0.00;0.62;;;;;15.80;1.00;;;;;;2275936;61;1138;-84
2021/10/14 08:08:06;227927.00;0.76;393.98;0.00;0.00;0.62;;;;;16.00;1.00;;;;;;2275914;61;1060;-85
2021/10/14 08:10:35;395505.00;1.32;682.08;0.00;0.00;0.62;;;;;16.00;1.00;;;;;;2275995;61;996;-84
2021/10/14 08:13:03;324395.00;1.08;559.85;0.00;0.00;0.62;;;;;16.20;1.00;;;;;;2275950;61;1318;-84
2021/10/14 08:15:30;283644.00;0.95;489.80;0.00;0.00;0.62;;;;;16.50;1.00;;;;;;2275945;61;1122;-84
2021/10/14 08:17:57;251694.00;0.84;434.86;0.00;0.00;0.62;;;;;16.80;1.00;;;;;;2275942;61;1067;-86
2021/10/14 08:20:24;304365.00;1.01;525.42;0.00;0.00;0.62;;;;;16.60;1.00;;;;;;2275794;61;1118;-84
2021/10/14 08:22:51;235105.00;0.78;406.33;0.00;0.00;0.62;;;;;16.00;1.00;;;;;;2268492;61;1263;-88
2021/10/14 08:25:18;329998.00;1.10;569.48;0.00;0.00;0.62;;;;;16.00;1.00;;;;;;2265474;61;2016;-86
2021/10/14 08:27:46;302407.00;1.01;522.06;0.00;0.00;0.62;;;;;15.20;1.00;;;;;;2276612;61;1107;-86
2021/10/14 08:30:14;269524.00;0.90;465.53;0.00;0.00;0.62;;;;;14.30;1.00;;;;;;2276625;61;1060;-85
2021/10/14 08:32:43;427161.00;1.42;736.50;0.00;0.00;0.62;;;;;14.20;1.00;;;;;;2276474;61;1258;-84
2021/10/14 08:35:10;424592.00;1.42;732.09;0.00;0.00;0.62;;;;;14.50;1.00;;;;;;2276501;61;1733;-88
2021/10/14 08:37:38;499273.00;1.66;860.57;0.00;0.00;0.62;;;;;14.90;1.00;;;;;;2276520;61;1019;-84
2021/10/14 08:40:07;978079.00;3.26;1693.69;39046.00;0.13;68.24;;;;;15.50;1.00;;;;;;2276531;61;1226;-84
2021/10/14 08:42:34;514151.00;1.71;886.19;29699.00;0.10;52.06;;;;;15.70;1.00;;;;;;2276522;61;1380;-84
2021/10/14 08:45:03;459510.00;1.53;792.14;0.00;0.00;0.62;;;;;15.40;1.00;;;;;;2276412;61;1919;-83
2021/10/14 08:47:32;961184.00;3.20;1663.84;149753.00;0.50;259.38;;;;;15.40;1.00;;;;;;2276395;61;1225;-83
2021/10/14 08:49:59;268815.00;0.90;464.31;0.00;0.00;0.62;;;;;15.50;1.00;;;;;;2276416;61;1127;-84
2021/10/14 08:52:27;615761.00;2.05;1061.44;19776.00;0.07;34.88;;;;;15.70;1.00;;;;;;2276307;61;1326;-84
2021/10/14 08:54:54;649251.00;2.16;1119.34;0.00;0.00;0.62;;;;;15.60;1.00;;;;;;2276400;61;1130;-84
2021/10/14 08:57:21;518086.00;1.73;892.97;0.00;0.00;0.62;;;;;15.30;1.00;;;;;;2276450;61;1106;-84
2021/10/14 08:59:48;355445.00;1.18;613.22;0.00;0.00;0.62;;;;;15.30;1.00;;;;;;2276424;61;1128;-83
2021/10/14 09:02:17;344632.00;1.15;594.63;0.00;0.00;0.62;;;;;15.60;1.00;;;;;;2276365;61;1736;-83
2021/10/14 09:04:57;710266.00;2.37;1225.05;61120.00;0.20;106.41;;;;;15.60;1.00;;;;;;2276343;61;2010;-84
2021/10/14 09:07:27;471260.00;1.57;812.36;0.00;0.00;0.62;;;;;15.70;1.00;;;;;;2276491;61;1006;-83
2021/10/14 09:09:55;362749.00;1.21;625.77;0.00;0.00;0.62;;;;;16.10;1.00;;;;;;2276419;61;1066;-83
2021/10/14 09:12:23;403441.00;1.34;695.72;0.00;0.00;0.62;;;;;15.60;1.00;;;;;;2276428;61;1398;-83
2021/10/14 09:14:59;584652.00;1.95;1007.73;0.00;0.00;0.62;;;;;15.50;1.00;;;;;;2276467;61;931;-84
2021/10/14 09:17:52;499652.00;1.67;861.22;0.00;0.00;0.62;;;;;15.00;1.00;;;;;;2276403;61;1006;-84
2021/10/14 09:20:37;361924.00;1.21;624.36;0.00;0.00;0.62;;;;;14.80;1.00;;;;;;2276383;61;1217;-83
2021/10/14 09:23:11;444158.00;1.48;765.73;0.00;0.00;0.62;;;;;15.30;1.00;;;;;;2276296;61;1368;-84
2021/10/14 09:25:40;289692.00;0.97;500.20;0.00;0.00;0.62;;;;;16.00;1.00;;;;;;2276452;61;2001;-84
2021/10/14 09:28:13;406200.00;1.35;700.46;0.00;0.00;0.62;;;;;16.30;1.00;;;;;;2276457;61;1121;-85
2021/10/14 09:30:45;371524.00;1.24;640.86;0.00;0.00;0.62;;;;;16.50;1.00;;;;;;2276342;61;1068;-85
2021/10/14 09:33:47;396129.00;1.32;683.15;0.00;0.00;0.62;;;;;16.50;1.00;;;;;;2276316;61;1342;-84
2021/10/14 09:36:21;580927.00;1.94;1001.30;84126.00;0.28;146.16;;;;;16.70;1.00;;;;;;2275513;61;1140;-84
2021/10/14 09:38:51;555724.00;1.85;957.83;87988.00;0.29;152.83;;;;;16.60;1.00;;;;;;2276154;61;1047;-84
2021/10/14 09:41:20;614735.00;2.05;1059.67;101636.00;0.34;176.40;;;;;17.10;1.00;;;;;;2276324;61;1080;-84
2021/10/14 09:43:49;662648.00;2.21;1142.52;103921.00;0.35;180.34;;;;;17.60;1.00;;;;;;2265725;61;1994;-83
2021/10/14 09:46:35;514145.00;1.71;886.18;79730.00;0.27;138.57;;;;;17.10;1.00;;;;;;2276317;61;1032;-84
2021/10/14 09:49:03;558708.00;1.86;962.97;0.00;0.00;0.62;;;;;17.50;1.00;;;;;;2272506;61;1000;-85
2021/10/14 09:51:32;466574.00;1.56;804.29;0.00;0.00;0.62;;;;;17.60;1.00;;;;;;2276306;61;1077;-85
2021/10/14 09:54:00;901288.00;3.00;1558.38;91271.00;0.30;158.50;;;;;18.10;1.00;;;;;;2267474;61;1311;-84
2021/10/14 09:56:28;853583.00;2.85;1474.74;93344.00;0.31;162.08;;;;;18.00;1.00;;;;;;2267695;61;1154;-84
2021/10/14 09:58:56;834765.00;2.78;1441.82;105202.00;0.35;182.55;;;;;17.60;1.00;;;;;;2267642;61;1012;-82